sensor_id;sensor_type;location;lat;lon;timestamp;temperature;humidity
15162;DHT22;7681;48.900;9.182;2023-10-19T00:00:13;10.80;99.90
15162;DHT22;7681;48.900;9.182;2023-10-19T00:02:49;10.80;99.90
15162;DHT22;7681;48.900;9.182;2023-10-19T00:05:23;10.80;99.90
15162;DHT22;7681;48.900;9.182;2023-10-19T00:07:53;10.90;99.90
15162;DHT22;7681;48.900;9.182;2023-10-19T00:10:24;10.90;99.90
15162;DHT22;7681;48.900;9.182;2023-10-19T00:12:57;10.90;99.90
15162;DHT22;7681;48.900;9.182;2023-10-19T00:15:27;10.90;99.90
15162;DHT22;7681;48.900;9.182;2023-10-19T00:17:59;11.00;99.90
15162;DHT22;7681;48.900;9.182;2023-10-19T00:20:40;11.00;99.90
15162;DHT22;7681;48.900;9.182;2023-10-19T00:23:20;11.00;99.90
15162;DHT22;7681;48.900;9.182;2023-10-19T00:25:56;11.00;99.90
15162;DHT22;7681;48.900;9.182;2023-10-19T00:28:31;11.00;99.90
15162;DHT22;7681;48.900;9.182;2023-10-19T00:31:02;11.00;99.90
15162;DHT22;7681;48.900;9.182;2023-10-19T00:33:39;10.90;99.90
15162;DHT22;7681;48.900;9.182;2023-10-19T00:36:12;10.90;99.90
15162;DHT22;7681;48.900;9.182;2023-10-19T00:38:42;10.90;99.90
15162;DHT22;7681;48.900;9.182;2023-10-19T00:41:20;11.00;99.90
15162;DHT22;7681;48.900;9.182;2023-10-19T00:43:54;11.00;99.90
15162;DHT22;7681;48.900;9.182;2023-10-19T00:46:30;11.00;99.90
15162;DHT22;7681;48.900;9.182;2023-10-19T00:49:06;11.00;99.90
15162;DHT22;7681;48.900;9.182;2023-10-19T00:51:43;11.00;99.90
15162;DHT22;7681;48.900;9.182;2023-10-19T00:54:23;11.00;99.90
15162;DHT22;7681;48.900;9.182;2023-10-19T00:57:00;11.00;99.90
15162;DHT22;7681;48.900;9.182;2023-10-19T00:59:38;11.10;99.90
15162;DHT22;7681;48.900;9.182;2023-10-19T01:02:10;11.10;99.90
15162;DHT22;7681;48.900;9.182;2023-10-19T01:04:56;11.00;99.90
15162;DHT22;7681;48.900;9.182;2023-10-19T01:07:36;11.10;99.90
15162;DHT22;7681;48.900;9.182;2023-10-19T01:10:08;11.10;99.90
15162;DHT22;7681;48.900;9.182;2023-10-19T01:12:39;11.20;99.90
15162;DHT22;7681;48.900;9.182;2023-10-19T01:15:11;11.20;99.90
15162;DHT22;7681;48.900;9.182;2023-10-19T01:17:44;11.20;99.90
15162;DHT22;7681;48.900;9.182;2023-10-19T01:20:19;11.20;99.90
15162;DHT22;7681;48.900;9.182;2023-10-19T01:22:53;11.20;99.90
15162;DHT22;7681;48.900;9.182;2023-10-19T01:25:42;11.30;99.90
15162;DHT22;7681;48.900;9.182;2023-10-19T01:28:16;11.30;99.90
15162;DHT22;7681;48.900;9.182;2023-10-19T01:30:48;11.30;99.90
15162;DHT22;7681;48.900;9.182;2023-10-19T01:33:21;11.30;99.90
15162;DHT22;7681;48.900;9.182;2023-10-19T01:35:51;11.20;99.90
15162;DHT22;7681;48.900;9.182;2023-10-19T01:38:36;11.20;99.90
15162;DHT22;7681;48.900;9.182;2023-10-19T01:41:06;11.10;99.90
15162;DHT22;7681;48.900;9.182;2023-10-19T01:43:40;11.20;99.90
15162;DHT22;7681;48.900;9.182;2023-10-19T01:46:11;11.20;99.90
15162;DHT22;7681;48.900;9.182;2023-10-19T01:48:52;11.20;99.90
15162;DHT22;7681;48.900;9.182;2023-10-19T01:51:26;11.20;99.90
15162;DHT22;7681;48.900;9.182;2023-10-19T01:53:58;11.30;99.90
15162;DHT22;7681;48.900;9.182;2023-10-19T01:56:30;11.30;99.90
15162;DHT22;7681;48.900;9.182;2023-10-19T01:59:00;11.40;99.90
15162;DHT22;7681;48.900;9.182;2023-10-19T02:01:30;11.40;99.90
15162;DHT22;7681;48.900;9.182;2023-10-19T02:03:58;11.30;99.90
15162;DHT22;7681;48.900;9.182;2023-10-19T02:06:30;11.30;99.90
15162;DHT22;7681;48.900;9.182;2023-10-19T02:09:08;11.30;99.90
15162;DHT22;7681;48.900;9.182;2023-10-19T02:11:49;11.30;99.90
15162;DHT22;7681;48.900;9.182;2023-10-19T02:14:19;11.30;99.90
15162;DHT22;7681;48.900;9.182;2023-10-19T02:16:48;11.30;99.90
15162;DHT22;7681;48.900;9.182;2023-10-19T02:19:23;11.30;99.90
15162;DHT22;7681;48.900;9.182;2023-10-19T02:21:52;11.30;99.90
15162;DHT22;7681;48.900;9.182;2023-10-19T02:24:26;11.20;99.90
15162;DHT22;7681;48.900;9.182;2023-10-19T02:26:53;11.30;99.90
15162;DHT22;7681;48.900;9.182;2023-10-19T02:29:24;11.30;99.90
15162;DHT22;7681;48.900;9.182;2023-10-19T02:31:52;11.20;99.90
15162;DHT22;7681;48.900;9.182;2023-10-19T02:34:23;11.30;99.90
15162;DHT22;7681;48.900;9.182;2023-10-19T02:36:51;11.30;99.90
15162;DHT22;7681;48.900;9.182;2023-10-19T02:39:21;11.30;99.90
15162;DHT22;7681;48.900;9.182;2023-10-19T02:41:57;11.30;99.90
15162;DHT22;7681;48.900;9.182;2023-10-19T02:44:35;11.30;99.90
15162;DHT22;7681;48.900;9.182;2023-10-19T02:47:04;11.30;99.90
15162;DHT22;7681;48.900;9.182;2023-10-19T02:49:40;11.30;99.90
15162;DHT22;7681;48.900;9.182;2023-10-19T02:52:11;11.30;99.90
15162;DHT22;7681;48.900;9.182;2023-10-19T02:54:43;11.30;99.90
15162;DHT22;7681;48.900;9.182;2023-10-19T02:57:15;11.30;99.90
15162;DHT22;7681;48.900;9.182;2023-10-19T02:59:46;11.40;99.90
15162;DHT22;7681;48.900;9.182;2023-10-19T03:02:14;11.40;99.90
15162;DHT22;7681;48.900;9.182;2023-10-19T03:04:45;11.30;99.90
15162;DHT22;7681;48.900;9.182;2023-10-19T03:07:13;11.30;99.90
15162;DHT22;7681;48.900;9.182;2023-10-19T03:09:49;11.30;99.90
15162;DHT22;7681;48.900;9.182;2023-10-19T03:12:23;11.20;99.90
15162;DHT22;7681;48.900;9.182;2023-10-19T03:14:53;11.20;99.90
15162;DHT22;7681;48.900;9.182;2023-10-19T03:17:21;11.10;99.90
15162;DHT22;7681;48.900;9.182;2023-10-19T03:19:52;11.10;99.90
15162;DHT22;7681;48.900;9.182;2023-10-19T03:22:20;11.00;99.90
15162;DHT22;7681;48.900;9.182;2023-10-19T03:24:50;11.00;99.90
15162;DHT22;7681;48.900;9.182;2023-10-19T03:27:29;10.90;99.90
15162;DHT22;7681;48.900;9.182;2023-10-19T03:30:01;11.00;99.90
15162;DHT22;7681;48.900;9.182;2023-10-19T03:32:28;10.90;99.90
15162;DHT22;7681;48.900;9.182;2023-10-19T03:34:59;10.80;99.90
15162;DHT22;7681;48.900;9.182;2023-10-19T03:37:31;10.80;99.90
15162;DHT22;7681;48.900;9.182;2023-10-19T03:40:02;10.70;99.90
15162;DHT22;7681;48.900;9.182;2023-10-19T03:42:41;10.70;99.90
15162;DHT22;7681;48.900;9.182;2023-10-19T03:45:14;10.70;99.90
15162;DHT22;7681;48.900;9.182;2023-10-19T03:47:44;10.80;99.90
15162;DHT22;7681;48.900;9.182;2023-10-19T03:50:17;10.90;99.90
15162;DHT22;7681;48.900;9.182;2023-10-19T03:52:50;11.00;99.90
15162;DHT22;7681;48.900;9.182;2023-10-19T03:55:20;11.10;99.90
15162;DHT22;7681;48.900;9.182;2023-10-19T03:57:53;11.20;99.90
15162;DHT22;7681;48.900;9.182;2023-10-19T04:00:23;11.20;99.90
15162;DHT22;7681;48.900;9.182;2023-10-19T04:02:57;11.30;99.90
15162;DHT22;7681;48.900;9.182;2023-10-19T04:05:27;11.30;99.90
15162;DHT22;7681;48.900;9.182;2023-10-19T04:07:59;11.30;99.90
15162;DHT22;7681;48.900;9.182;2023-10-19T04:10:39;11.40;99.90
15162;DHT22;7681;48.900;9.182;2023-10-19T04:13:14;11.50;99.90
15162;DHT22;7681;48.900;9.182;2023-10-19T04:15:44;11.40;99.90
15162;DHT22;7681;48.900;9.182;2023-10-19T04:18:16;11.40;99.90
15162;DHT22;7681;48.900;9.182;2023-10-19T04:20:47;11.50;99.90
15162;DHT22;7681;48.900;9.182;2023-10-19T04:23:34;11.50;99.90
15162;DHT22;7681;48.900;9.182;2023-10-19T04:26:05;11.50;99.90
15162;DHT22;7681;48.900;9.182;2023-10-19T04:28:41;11.40;99.90
15162;DHT22;7681;48.900;9.182;2023-10-19T04:31:19;11.40;99.90
15162;DHT22;7681;48.900;9.182;2023-10-19T04:33:54;11.40;99.90
15162;DHT22;7681;48.900;9.182;2023-10-19T04:36:24;11.40;99.90
15162;DHT22;7681;48.900;9.182;2023-10-19T04:38:54;11.30;99.90
15162;DHT22;7681;48.900;9.182;2023-10-19T04:41:24;11.30;99.90
15162;DHT22;7681;48.900;9.182;2023-10-19T04:43:57;11.20;99.90
15162;DHT22;7681;48.900;9.182;2023-10-19T04:46:32;11.20;99.90
15162;DHT22;7681;48.900;9.182;2023-10-19T04:49:02;11.10;99.90
15162;DHT22;7681;48.900;9.182;2023-10-19T04:51:37;11.10;99.90
15162;DHT22;7681;48.900;9.182;2023-10-19T04:54:07;11.00;99.90
15162;DHT22;7681;48.900;9.182;2023-10-19T04:56:37;11.00;99.90
15162;DHT22;7681;48.900;9.182;2023-10-19T04:59:10;10.90;99.90
15162;DHT22;7681;48.900;9.182;2023-10-19T05:01:40;10.80;99.90
15162;DHT22;7681;48.900;9.182;2023-10-19T05:04:10;10.80;99.90
15162;DHT22;7681;48.900;9.182;2023-10-19T05:06:40;10.70;99.90
15162;DHT22;7681;48.900;9.182;2023-10-19T05:09:10;10.70;99.90
15162;DHT22;7681;48.900;9.182;2023-10-19T05:11:40;10.60;99.90
15162;DHT22;7681;48.900;9.182;2023-10-19T05:14:15;10.60;99.90
15162;DHT22;7681;48.900;9.182;2023-10-19T05:16:47;10.50;99.90
15162;DHT22;7681;48.900;9.182;2023-10-19T05:19:17;10.50;99.90
15162;DHT22;7681;48.900;9.182;2023-10-19T05:21:46;10.50;99.90
15162;DHT22;7681;48.900;9.182;2023-10-19T05:24:16;10.50;99.90
15162;DHT22;7681;48.900;9.182;2023-10-19T05:26:46;10.50;99.90
15162;DHT22;7681;48.900;9.182;2023-10-19T05:29:19;10.40;99.90
15162;DHT22;7681;48.900;9.182;2023-10-19T05:31:50;10.50;99.90
15162;DHT22;7681;48.900;9.182;2023-10-19T05:34:20;10.50;99.90
15162;DHT22;7681;48.900;9.182;2023-10-19T05:36:50;10.40;99.90
15162;DHT22;7681;48.900;9.182;2023-10-19T05:39:21;10.40;99.90
15162;DHT22;7681;48.900;9.182;2023-10-19T05:41:54;10.40;99.90
15162;DHT22;7681;48.900;9.182;2023-10-19T05:44:28;10.40;99.90
15162;DHT22;7681;48.900;9.182;2023-10-19T05:46:59;10.30;99.90
15162;DHT22;7681;48.900;9.182;2023-10-19T05:49:34;10.30;99.90
15162;DHT22;7681;48.900;9.182;2023-10-19T05:52:04;10.30;99.90
15162;DHT22;7681;48.900;9.182;2023-10-19T05:54:35;10.30;99.90
15162;DHT22;7681;48.900;9.182;2023-10-19T05:57:05;10.30;99.90
15162;DHT22;7681;48.900;9.182;2023-10-19T05:59:38;10.40;99.90
15162;DHT22;7681;48.900;9.182;2023-10-19T06:02:08;10.40;99.90
15162;DHT22;7681;48.900;9.182;2023-10-19T06:04:38;10.40;99.90
15162;DHT22;7681;48.900;9.182;2023-10-19T06:07:08;10.40;99.90
15162;DHT22;7681;48.900;9.182;2023-10-19T06:09:38;10.60;99.90
15162;DHT22;7681;48.900;9.182;2023-10-19T06:12:09;10.70;99.90
15162;DHT22;7681;48.900;9.182;2023-10-19T06:14:47;10.90;99.90
15162;DHT22;7681;48.900;9.182;2023-10-19T06:17:17;11.10;99.90
15162;DHT22;7681;48.900;9.182;2023-10-19T06:19:50;11.20;99.90
15162;DHT22;7681;48.900;9.182;2023-10-19T06:22:20;11.30;99.90
15162;DHT22;7681;48.900;9.182;2023-10-19T06:24:51;11.30;99.90
15162;DHT22;7681;48.900;9.182;2023-10-19T06:27:21;11.40;99.90
15162;DHT22;7681;48.900;9.182;2023-10-19T06:29:54;11.50;99.90
15162;DHT22;7681;48.900;9.182;2023-10-19T06:32:24;11.60;99.90
15162;DHT22;7681;48.900;9.182;2023-10-19T06:34:58;11.80;99.90
15162;DHT22;7681;48.900;9.182;2023-10-19T06:37:28;11.80;99.90
15162;DHT22;7681;48.900;9.182;2023-10-19T06:39:58;12.00;99.90
15162;DHT22;7681;48.900;9.182;2023-10-19T06:42:29;12.00;99.90
15162;DHT22;7681;48.900;9.182;2023-10-19T06:45:02;12.10;99.90
15162;DHT22;7681;48.900;9.182;2023-10-19T06:47:32;12.10;99.90
15162;DHT22;7681;48.900;9.182;2023-10-19T06:50:05;12.20;99.90
15162;DHT22;7681;48.900;9.182;2023-10-19T06:52:37;12.20;99.90
15162;DHT22;7681;48.900;9.182;2023-10-19T06:55:07;12.30;99.90
15162;DHT22;7681;48.900;9.182;2023-10-19T06:57:40;12.40;99.90
15162;DHT22;7681;48.900;9.182;2023-10-19T07:00:14;12.40;99.90
15162;DHT22;7681;48.900;9.182;2023-10-19T07:02:46;12.40;99.90
15162;DHT22;7681;48.900;9.182;2023-10-19T07:05:18;12.40;99.90
15162;DHT22;7681;48.900;9.182;2023-10-19T07:07:49;12.60;99.90
15162;DHT22;7681;48.900;9.182;2023-10-19T07:10:22;12.70;99.90
15162;DHT22;7681;48.900;9.182;2023-10-19T07:12:52;12.70;99.90
15162;DHT22;7681;48.900;9.182;2023-10-19T07:15:25;12.90;99.90
15162;DHT22;7681;48.900;9.182;2023-10-19T07:17:57;12.90;99.90
15162;DHT22;7681;48.900;9.182;2023-10-19T07:20:33;13.00;99.90
15162;DHT22;7681;48.900;9.182;2023-10-19T07:23:05;13.00;99.90
15162;DHT22;7681;48.900;9.182;2023-10-19T07:25:41;12.90;99.90
15162;DHT22;7681;48.900;9.182;2023-10-19T07:28:12;12.90;99.90
15162;DHT22;7681;48.900;9.182;2023-10-19T07:30:47;12.90;99.90
15162;DHT22;7681;48.900;9.182;2023-10-19T07:33:18;12.90;99.90
15162;DHT22;7681;48.900;9.182;2023-10-19T07:35:49;12.90;99.90
15162;DHT22;7681;48.900;9.182;2023-10-19T07:38:22;12.90;99.90
15162;DHT22;7681;48.900;9.182;2023-10-19T07:40:52;12.90;99.90
15162;DHT22;7681;48.900;9.182;2023-10-19T07:43:22;13.10;99.90
15162;DHT22;7681;48.900;9.182;2023-10-19T07:45:55;13.10;99.90
15162;DHT22;7681;48.900;9.182;2023-10-19T07:48:25;13.20;99.90
15162;DHT22;7681;48.900;9.182;2023-10-19T07:50:56;13.20;99.90
15162;DHT22;7681;48.900;9.182;2023-10-19T07:53:26;13.20;99.90
15162;DHT22;7681;48.900;9.182;2023-10-19T07:55:57;13.30;99.90
15162;DHT22;7681;48.900;9.182;2023-10-19T07:58:32;13.50;99.90
15162;DHT22;7681;48.900;9.182;2023-10-19T08:01:05;13.40;99.90
15162;DHT22;7681;48.900;9.182;2023-10-19T08:03:40;13.50;99.90
15162;DHT22;7681;48.900;9.182;2023-10-19T08:06:10;13.60;99.90
15162;DHT22;7681;48.900;9.182;2023-10-19T08:08:43;13.70;99.90
15162;DHT22;7681;48.900;9.182;2023-10-19T08:11:14;13.80;99.90
15162;DHT22;7681;48.900;9.182;2023-10-19T08:13:46;13.90;99.90
15162;DHT22;7681;48.900;9.182;2023-10-19T08:16:20;14.10;99.90
15162;DHT22;7681;48.900;9.182;2023-10-19T08:18:51;14.30;99.90
15162;DHT22;7681;48.900;9.182;2023-10-19T08:21:23;14.40;99.90
15162;DHT22;7681;48.900;9.182;2023-10-19T08:23:55;14.50;99.90
15162;DHT22;7681;48.900;9.182;2023-10-19T08:26:26;14.60;99.90
15162;DHT22;7681;48.900;9.182;2023-10-19T08:28:57;14.70;99.90
15162;DHT22;7681;48.900;9.182;2023-10-19T08:31:34;14.70;99.90
15162;DHT22;7681;48.900;9.182;2023-10-19T08:34:11;14.80;99.90
15162;DHT22;7681;48.900;9.182;2023-10-19T08:36:46;14.90;99.90
15162;DHT22;7681;48.900;9.182;2023-10-19T08:39:16;15.20;99.90
15162;DHT22;7681;48.900;9.182;2023-10-19T08:41:46;15.40;99.90
15162;DHT22;7681;48.900;9.182;2023-10-19T08:44:20;15.60;99.90
15162;DHT22;7681;48.900;9.182;2023-10-19T08:46:53;16.00;99.90
15162;DHT22;7681;48.900;9.182;2023-10-19T08:49:24;16.10;99.90
15162;DHT22;7681;48.900;9.182;2023-10-19T08:51:54;16.40;99.90
15162;DHT22;7681;48.900;9.182;2023-10-19T08:54:26;16.60;99.90
15162;DHT22;7681;48.900;9.182;2023-10-19T08:56:57;16.70;99.90
15162;DHT22;7681;48.900;9.182;2023-10-19T08:59:27;16.80;99.90
15162;DHT22;7681;48.900;9.182;2023-10-19T09:02:03;16.80;99.90
15162;DHT22;7681;48.900;9.182;2023-10-19T09:04:40;16.80;99.90
15162;DHT22;7681;48.900;9.182;2023-10-19T09:07:10;16.90;99.90
15162;DHT22;7681;48.900;9.182;2023-10-19T09:09:50;17.10;99.90
15162;DHT22;7681;48.900;9.182;2023-10-19T09:12:19;17.40;99.90
15162;DHT22;7681;48.900;9.182;2023-10-19T09:14:51;17.70;99.90
15162;DHT22;7681;48.900;9.182;2023-10-19T09:17:29;17.80;99.90
15162;DHT22;7681;48.900;9.182;2023-10-19T09:20:00;18.10;99.90
15162;DHT22;7681;48.900;9.182;2023-10-19T09:22:37;18.30;99.90
15162;DHT22;7681;48.900;9.182;2023-10-19T09:25:11;18.30;99.90
15162;DHT22;7681;48.900;9.182;2023-10-19T09:27:48;18.60;99.90
15162;DHT22;7681;48.900;9.182;2023-10-19T09:30:21;18.90;99.90
15162;DHT22;7681;48.900;9.182;2023-10-19T09:32:55;18.90;99.90
15162;DHT22;7681;48.900;9.182;2023-10-19T09:35:25;19.00;99.90
15162;DHT22;7681;48.900;9.182;2023-10-19T09:37:58;19.10;99.90
15162;DHT22;7681;48.900;9.182;2023-10-19T09:40:32;19.20;99.90
15162;DHT22;7681;48.900;9.182;2023-10-19T09:43:03;19.30;99.90
15162;DHT22;7681;48.900;9.182;2023-10-19T09:45:34;19.50;99.90
15162;DHT22;7681;48.900;9.182;2023-10-19T09:48:09;19.50;99.90
15162;DHT22;7681;48.900;9.182;2023-10-19T09:50:44;19.60;99.90
15162;DHT22;7681;48.900;9.182;2023-10-19T09:53:16;19.50;99.90
15162;DHT22;7681;48.900;9.182;2023-10-19T09:55:47;19.60;99.90
15162;DHT22;7681;48.900;9.182;2023-10-19T09:58:20;19.60;99.90
15162;DHT22;7681;48.900;9.182;2023-10-19T10:00:52;19.60;99.90
15162;DHT22;7681;48.900;9.182;2023-10-19T10:06:12;19.60;99.90
15162;DHT22;7681;48.900;9.182;2023-10-19T10:08:47;19.70;99.90
15162;DHT22;7681;48.900;9.182;2023-10-19T10:11:19;19.70;99.90
15162;DHT22;7681;48.900;9.182;2023-10-19T10:13:50;19.70;99.90
15162;DHT22;7681;48.900;9.182;2023-10-19T10:16:24;19.70;99.90
15162;DHT22;7681;48.900;9.182;2023-10-19T10:18:54;19.70;99.90
15162;DHT22;7681;48.900;9.182;2023-10-19T10:21:29;19.60;99.90
15162;DHT22;7681;48.900;9.182;2023-10-19T10:24:00;19.60;99.90
15162;DHT22;7681;48.900;9.182;2023-10-19T10:29:23;19.30;99.90
15162;DHT22;7681;48.900;9.182;2023-10-19T10:31:55;19.30;99.90
15162;DHT22;7681;48.900;9.182;2023-10-19T10:37:13;19.20;99.90
15162;DHT22;7681;48.900;9.182;2023-10-19T10:39:43;19.30;99.90
15162;DHT22;7681;48.900;9.182;2023-10-19T10:42:16;19.30;99.90
15162;DHT22;7681;48.900;9.182;2023-10-19T10:44:50;19.30;99.90
15162;DHT22;7681;48.900;9.182;2023-10-19T10:47:22;19.40;99.90
15162;DHT22;7681;48.900;9.182;2023-10-19T10:49:53;19.60;99.90
15162;DHT22;7681;48.900;9.182;2023-10-19T10:52:26;19.60;99.90
15162;DHT22;7681;48.900;9.182;2023-10-19T10:54:57;19.80;99.90
15162;DHT22;7681;48.900;9.182;2023-10-19T10:57:31;19.80;99.90
15162;DHT22;7681;48.900;9.182;2023-10-19T11:00:05;19.90;99.90
15162;DHT22;7681;48.900;9.182;2023-10-19T11:02:38;19.80;99.90
15162;DHT22;7681;48.900;9.182;2023-10-19T11:05:10;19.80;99.90
15162;DHT22;7681;48.900;9.182;2023-10-19T11:10:35;19.60;99.90
15162;DHT22;7681;48.900;9.182;2023-10-19T11:13:06;19.60;99.90
15162;DHT22;7681;48.900;9.182;2023-10-19T11:15:37;19.50;99.90
15162;DHT22;7681;48.900;9.182;2023-10-19T11:18:27;19.40;99.90
15162;DHT22;7681;48.900;9.182;2023-10-19T11:20:57;19.40;99.90
15162;DHT22;7681;48.900;9.182;2023-10-19T11:23:42;19.20;99.90
15162;DHT22;7681;48.900;9.182;2023-10-19T11:28:59;18.90;99.90
15162;DHT22;7681;48.900;9.182;2023-10-19T11:31:31;18.60;99.90
15162;DHT22;7681;48.900;9.182;2023-10-19T11:34:05;18.30;99.90
15162;DHT22;7681;48.900;9.182;2023-10-19T11:36:37;18.00;99.90
15162;DHT22;7681;48.900;9.182;2023-10-19T11:39:07;17.70;99.90
15162;DHT22;7681;48.900;9.182;2023-10-19T11:41:41;17.50;99.90
15162;DHT22;7681;48.900;9.182;2023-10-19T11:44:13;17.20;99.90
15162;DHT22;7681;48.900;9.182;2023-10-19T11:46:43;17.10;99.90
15162;DHT22;7681;48.900;9.182;2023-10-19T11:49:14;16.90;99.90
15162;DHT22;7681;48.900;9.182;2023-10-19T11:51:43;16.80;99.90
15162;DHT22;7681;48.900;9.182;2023-10-19T11:54:13;16.90;99.90
15162;DHT22;7681;48.900;9.182;2023-10-19T11:56:45;16.80;99.90
15162;DHT22;7681;48.900;9.182;2023-10-19T11:59:18;16.70;99.90
15162;DHT22;7681;48.900;9.182;2023-10-19T12:01:48;16.70;99.90
15162;DHT22;7681;48.900;9.182;2023-10-19T12:04:18;16.80;99.90
15162;DHT22;7681;48.900;9.182;2023-10-19T12:06:49;16.70;99.90
15162;DHT22;7681;48.900;9.182;2023-10-19T12:09:20;16.70;99.90
15162;DHT22;7681;48.900;9.182;2023-10-19T12:11:51;16.70;99.90
15162;DHT22;7681;48.900;9.182;2023-10-19T12:14:25;16.70;99.90
15162;DHT22;7681;48.900;9.182;2023-10-19T12:16:55;16.60;99.90
15162;DHT22;7681;48.900;9.182;2023-10-19T12:19:33;16.60;99.90
15162;DHT22;7681;48.900;9.182;2023-10-19T12:22:03;16.50;99.90
15162;DHT22;7681;48.900;9.182;2023-10-19T12:24:35;16.50;99.90
15162;DHT22;7681;48.900;9.182;2023-10-19T12:59:51;16.80;99.90
15162;DHT22;7681;48.900;9.182;2023-10-19T13:02:21;16.80;99.90
15162;DHT22;7681;48.900;9.182;2023-10-19T13:27:33;16.40;99.90
15162;DHT22;7681;48.900;9.182;2023-10-19T13:30:03;16.30;99.90
15162;DHT22;7681;48.900;9.182;2023-10-19T13:32:33;16.20;99.90
15162;DHT22;7681;48.900;9.182;2023-10-19T13:35:04;16.10;99.90
15162;DHT22;7681;48.900;9.182;2023-10-19T13:37:34;16.10;99.90
15162;DHT22;7681;48.900;9.182;2023-10-19T13:40:04;16.10;99.90
15162;DHT22;7681;48.900;9.182;2023-10-19T13:42:39;16.20;99.90
15162;DHT22;7681;48.900;9.182;2023-10-19T13:47:44;16.20;99.90
15162;DHT22;7681;48.900;9.182;2023-10-19T14:02:40;16.50;99.90
15162;DHT22;7681;48.900;9.182;2023-10-19T14:15:07;16.50;99.90
15162;DHT22;7681;48.900;9.182;2023-10-19T14:27:36;16.20;99.90
15162;DHT22;7681;48.900;9.182;2023-10-19T14:35:06;16.20;99.90
15162;DHT22;7681;48.900;9.182;2023-10-19T14:42:38;16.10;99.90
15162;DHT22;7681;48.900;9.182;2023-10-19T14:45:09;16.10;99.90
15162;DHT22;7681;48.900;9.182;2023-10-19T14:47:40;16.10;99.90
15162;DHT22;7681;48.900;9.182;2023-10-19T14:55:11;16.00;99.90
15162;DHT22;7681;48.900;9.182;2023-10-19T15:05:11;16.30;99.90
15162;DHT22;7681;48.900;9.182;2023-10-19T15:15:11;16.20;99.90
15162;DHT22;7681;48.900;9.182;2023-10-19T15:25:14;16.20;99.90
15162;DHT22;7681;48.900;9.182;2023-10-19T15:38:04;16.10;99.90
15162;DHT22;7681;48.900;9.182;2023-10-19T15:43:16;16.20;99.90
15162;DHT22;7681;48.900;9.182;2023-10-19T15:45:46;16.10;99.90
15162;DHT22;7681;48.900;9.182;2023-10-19T15:48:16;16.10;99.90
15162;DHT22;7681;48.900;9.182;2023-10-19T15:50:46;16.10;99.90
15162;DHT22;7681;48.900;9.182;2023-10-19T15:55:44;16.00;99.90
15162;DHT22;7681;48.900;9.182;2023-10-19T16:05:46;15.90;99.90
15162;DHT22;7681;48.900;9.182;2023-10-19T16:10:50;15.80;99.90
15162;DHT22;7681;48.900;9.182;2023-10-19T16:13:21;15.80;99.90
15162;DHT22;7681;48.900;9.182;2023-10-19T16:20:59;15.70;99.90
15162;DHT22;7681;48.900;9.182;2023-10-19T16:23:37;15.70;99.90
15162;DHT22;7681;48.900;9.182;2023-10-19T16:26:07;15.70;99.90
15162;DHT22;7681;48.900;9.182;2023-10-19T16:28:38;15.70;99.90
15162;DHT22;7681;48.900;9.182;2023-10-19T16:31:08;15.60;99.90
15162;DHT22;7681;48.900;9.182;2023-10-19T16:36:18;15.60;99.90
15162;DHT22;7681;48.900;9.182;2023-10-19T16:41:16;15.60;99.90
15162;DHT22;7681;48.900;9.182;2023-10-19T16:43:48;15.60;99.90
15162;DHT22;7681;48.900;9.182;2023-10-19T16:46:20;15.60;99.90
15162;DHT22;7681;48.900;9.182;2023-10-19T16:48:50;15.60;99.90
15162;DHT22;7681;48.900;9.182;2023-10-19T16:51:22;15.60;99.90
15162;DHT22;7681;48.900;9.182;2023-10-19T17:28:44;15.50;99.90
15162;DHT22;7681;48.900;9.182;2023-10-19T17:31:15;15.40;99.90
15162;DHT22;7681;48.900;9.182;2023-10-19T17:38:47;15.40;99.90
15162;DHT22;7681;48.900;9.182;2023-10-19T17:41:27;15.30;99.90
15162;DHT22;7681;48.900;9.182;2023-10-19T17:56:42;15.30;99.90
15162;DHT22;7681;48.900;9.182;2023-10-19T18:06:40;15.10;99.90
15162;DHT22;7681;48.900;9.182;2023-10-19T18:11:50;15.00;99.90
15162;DHT22;7681;48.900;9.182;2023-10-19T18:16:50;15.00;99.90
15162;DHT22;7681;48.900;9.182;2023-10-19T18:24:21;14.90;99.90
15162;DHT22;7681;48.900;9.182;2023-10-19T18:26:54;14.90;99.90
15162;DHT22;7681;48.900;9.182;2023-10-19T18:29:24;14.90;99.90
15162;DHT22;7681;48.900;9.182;2023-10-19T18:31:55;14.80;99.90
15162;DHT22;7681;48.900;9.182;2023-10-19T18:36:59;14.80;99.90
15162;DHT22;7681;48.900;9.182;2023-10-19T18:39:34;14.80;99.90
15162;DHT22;7681;48.900;9.182;2023-10-19T18:42:10;14.80;99.90
15162;DHT22;7681;48.900;9.182;2023-10-19T18:54:44;14.70;99.90
15162;DHT22;7681;48.900;9.182;2023-10-19T19:02:22;14.70;99.90
15162;DHT22;7681;48.900;9.182;2023-10-19T19:04:53;14.80;99.90
15162;DHT22;7681;48.900;9.182;2023-10-19T19:07:23;14.80;99.90
15162;DHT22;7681;48.900;9.182;2023-10-19T19:17:32;14.70;99.90
